createdAt,value
2023-01-12T00:00:01.492Z,1013.62
2023-01-12T00:01:01.089Z,1013.7
2023-01-12T00:02:01.143Z,1013.64
2023-01-12T00:03:01.060Z,1013.63
2023-01-12T00:04:00.841Z,1013.63
2023-01-12T00:05:00.503Z,1013.64
2023-01-12T00:06:00.226Z,1013.67
2023-01-12T00:07:00.411Z,1013.66
2023-01-12T00:08:00.467Z,1013.7
2023-01-12T00:09:00.477Z,1013.69
2023-01-12T00:10:00.126Z,1013.71
2023-01-12T00:10:59.935Z,1013.69
2023-01-12T00:11:59.613Z,1013.75
2023-01-12T00:13:01.260Z,1013.65
2023-01-12T00:14:01.979Z,1013.59
2023-01-12T00:15:01.494Z,1013.61
2023-01-12T00:16:01.241Z,1013.62
2023-01-12T00:17:03.910Z,1013.62
2023-01-12T00:18:01.097Z,1013.63
2023-01-12T00:19:01.104Z,1013.59
2023-01-12T00:20:01.118Z,1013.62
2023-01-12T00:21:01.123Z,1013.58
2023-01-12T00:22:01.121Z,1013.61
2023-01-12T00:23:01.126Z,1013.6
2023-01-12T00:24:01.402Z,1013.61
2023-01-12T00:25:01.553Z,1013.56
2023-01-12T00:26:01.198Z,1013.63
2023-01-12T00:27:01.340Z,1013.63
2023-01-12T00:28:01.176Z,1013.69
2023-01-12T00:29:01.062Z,1013.67
2023-01-12T00:30:01.095Z,1013.64
2023-01-12T00:31:01.199Z,1013.61
2023-01-12T00:32:01.271Z,1013.59
2023-01-12T00:33:01.471Z,1013.61
2023-01-12T00:34:01.164Z,1013.61
2023-01-12T00:35:01.108Z,1013.61
2023-01-12T00:36:01.094Z,1013.66
2023-01-12T00:37:01.138Z,1013.65
2023-01-12T00:38:01.116Z,1013.61
2023-01-12T00:39:01.126Z,1013.63
2023-01-12T00:40:03.028Z,1013.63
2023-01-12T00:41:01.134Z,1013.62
2023-01-12T00:42:01.203Z,1013.62
2023-01-12T00:43:01.172Z,1013.65
2023-01-12T00:44:01.350Z,1013.62
2023-01-12T00:45:01.155Z,1013.62
2023-01-12T00:46:01.332Z,1013.6
2023-01-12T00:47:02.751Z,1013.64
2023-01-12T00:48:02.750Z,1013.65
2023-01-12T00:49:02.140Z,1013.62
2023-01-12T00:50:01.184Z,1013.57
2023-01-12T00:51:01.393Z,1013.61
2023-01-12T00:52:01.141Z,1013.62
2023-01-12T00:53:01.856Z,1013.61
2023-01-12T00:54:01.360Z,1013.61
2023-01-12T00:55:02.067Z,1013.58
2023-01-12T00:56:02.768Z,1013.55
2023-01-12T00:57:01.133Z,1013.54
2023-01-12T00:58:01.792Z,1013.49
2023-01-12T00:59:01.182Z,1013.46
2023-01-12T01:00:01.161Z,1013.46
2023-01-12T01:01:05.583Z,1013.41
2023-01-12T01:02:01.684Z,1013.43
2023-01-12T01:03:00.984Z,1013.45
2023-01-12T01:04:00.780Z,1013.51
2023-01-12T01:05:00.482Z,1013.51
2023-01-12T01:06:08.268Z,1013.58
2023-01-12T01:07:01.067Z,1013.62
2023-01-12T01:08:01.182Z,1013.62
2023-01-12T01:09:01.105Z,1013.64
2023-01-12T01:10:01.055Z,1013.61
2023-01-12T01:11:11.251Z,1013.53
2023-01-12T01:12:01.550Z,1013.57
2023-01-12T01:13:01.138Z,1013.54
2023-01-12T01:14:01.172Z,1013.55
2023-01-12T01:15:01.148Z,1013.58
2023-01-12T01:16:13.969Z,1013.58
2023-01-12T01:17:01.592Z,1013.55
2023-01-12T01:18:01.893Z,1013.58
2023-01-12T01:19:01.736Z,1013.62
2023-01-12T01:20:01.220Z,1013.58
2023-01-12T01:21:16.722Z,1013.58
2023-01-12T01:22:01.199Z,1013.54
2023-01-12T01:23:01.089Z,1013.5
2023-01-12T01:24:01.091Z,1013.53
2023-01-12T01:25:01.108Z,1013.47
2023-01-12T01:26:01.132Z,1013.49
2023-01-12T01:27:01.234Z,1013.49
2023-01-12T01:28:01.468Z,1013.46
2023-01-12T01:29:01.191Z,1013.46
2023-01-12T01:30:01.167Z,1013.43
2023-01-12T01:31:01.259Z,1013.42
2023-01-12T01:32:01.879Z,1013.47
2023-01-12T01:33:02.522Z,1013.35
2023-01-12T01:34:01.189Z,1013.34
2023-01-12T01:35:01.127Z,1013.31
2023-01-12T01:36:01.122Z,1013.33
2023-01-12T01:37:01.473Z,1013.35
2023-01-12T01:38:01.083Z,1013.34
2023-01-12T01:39:01.107Z,1013.35
2023-01-12T01:40:01.099Z,1013.29
2023-01-12T01:41:01.111Z,1013.29
2023-01-12T01:42:01.224Z,1013.33
2023-01-12T01:43:01.285Z,1013.33
2023-01-12T01:44:01.174Z,1013.33
2023-01-12T01:45:01.589Z,1013.29
2023-01-12T01:46:01.627Z,1013.26
2023-01-12T01:47:01.186Z,1013.28
2023-01-12T01:48:01.158Z,1013.29
2023-01-12T01:49:01.279Z,1013.28
2023-01-12T01:50:01.173Z,1013.3
2023-01-12T01:51:01.072Z,1013.27
2023-01-12T01:52:01.478Z,1013.3
2023-01-12T01:53:01.093Z,1013.3
2023-01-12T01:54:01.079Z,1013.35
2023-01-12T01:55:01.096Z,1013.27
2023-01-12T01:56:01.098Z,1013.28
2023-01-12T01:57:01.110Z,1013.3
2023-01-12T01:58:01.116Z,1013.27
2023-01-12T01:59:01.259Z,1013.27
2023-01-12T02:00:01.396Z,1013.25
2023-01-12T02:01:01.546Z,1013.24
2023-01-12T02:02:01.204Z,1013.24
2023-01-12T02:03:01.210Z,1013.22
2023-01-12T02:04:01.196Z,1013.2
2023-01-12T02:05:01.153Z,1013.21
2023-01-12T02:06:01.161Z,1013.16
2023-01-12T02:07:01.261Z,1013.19
2023-01-12T02:08:01.287Z,1013.19
2023-01-12T02:09:01.483Z,1013.23
2023-01-12T02:10:01.080Z,1013.28
2023-01-12T02:11:01.121Z,1013.28
2023-01-12T02:12:01.141Z,1013.24
2023-01-12T02:13:01.919Z,1013.32
2023-01-12T02:14:01.174Z,1013.32
2023-01-12T02:15:01.271Z,1013.29
2023-01-12T02:16:02.107Z,1013.31
2023-01-12T02:17:01.313Z,1013.31
2023-01-12T02:18:02.182Z,1013.28
2023-01-12T02:19:01.149Z,1013.29
2023-01-12T02:20:01.156Z,1013.28
2023-01-12T02:21:01.157Z,1013.3
2023-01-12T02:22:01.234Z,1013.28
2023-01-12T02:23:01.079Z,1013.31
2023-01-12T02:24:03.901Z,1013.25
2023-01-12T02:25:01.924Z,1013.2
2023-01-12T02:26:02.132Z,1013.23
2023-01-12T02:27:01.869Z,1013.24
2023-01-12T02:28:01.128Z,1013.29
2023-01-12T02:29:01.098Z,1013.29
2023-01-12T02:30:01.132Z,1013.24
2023-01-12T02:31:01.241Z,1013.28
2023-01-12T02:32:01.137Z,1013.26
2023-01-12T02:33:01.190Z,1013.32
2023-01-12T02:34:01.441Z,1013.28
2023-01-12T02:35:01.520Z,1013.22
2023-01-12T02:36:02.198Z,1013.2
2023-01-12T02:37:03.371Z,1013.21
2023-01-12T02:38:01.175Z,1013.2
2023-01-12T02:39:01.808Z,1013.18
2023-01-12T02:40:01.070Z,1013.19
2023-01-12T02:41:01.082Z,1013.13
2023-01-12T02:42:07.297Z,1013.12
2023-01-12T02:43:01.121Z,1013.13
2023-01-12T02:44:01.074Z,1013.03
2023-01-12T02:45:01.086Z,1013.02
2023-01-12T02:46:01.716Z,1013.04
2023-01-12T02:47:09.812Z,1012.96
2023-01-12T02:48:01.429Z,1012.93
2023-01-12T02:49:01.089Z,1012.95
2023-01-12T02:50:01.195Z,1012.94
2023-01-12T02:51:01.475Z,1012.94
2023-01-12T02:52:12.619Z,1012.91
2023-01-12T02:53:01.079Z,1012.87
2023-01-12T02:54:01.165Z,1012.86
2023-01-12T02:55:01.159Z,1012.84
2023-01-12T02:56:01.069Z,1012.84
2023-01-12T02:57:14.393Z,1012.81
2023-01-12T02:58:01.108Z,1012.82
2023-01-12T02:59:01.084Z,1012.83
2023-01-12T03:00:01.317Z,1012.76
2023-01-12T03:01:01.656Z,1012.69
2023-01-12T03:02:16.839Z,1012.71
2023-01-12T03:03:01.708Z,1012.61
2023-01-12T03:04:01.839Z,1012.61
2023-01-12T03:05:01.805Z,1012.57
2023-01-12T03:06:01.445Z,1012.63
2023-01-12T03:07:01.159Z,1012.73
2023-01-12T03:08:01.149Z,1012.64
2023-01-12T03:09:01.157Z,1012.72
2023-01-12T03:10:01.539Z,1012.72
2023-01-12T03:11:01.275Z,1012.73
2023-01-12T03:12:01.074Z,1012.74
2023-01-12T03:13:01.079Z,1012.75
2023-01-12T03:14:01.055Z,1012.71
2023-01-12T03:15:00.766Z,1012.73
2023-01-12T03:16:00.536Z,1012.72
2023-01-12T03:17:00.284Z,1012.75
2023-01-12T03:18:00.001Z,1012.75
2023-01-12T03:18:59.659Z,1012.74
2023-01-12T03:20:01.311Z,1012.69
2023-01-12T03:21:02.057Z,1012.7
2023-01-12T03:22:01.128Z,1012.66
2023-01-12T03:23:01.069Z,1012.65
2023-01-12T03:24:01.754Z,1012.63
2023-01-12T03:25:01.151Z,1012.66
2023-01-12T03:26:01.173Z,1012.7
2023-01-12T03:27:01.222Z,1012.7
2023-01-12T03:28:02.207Z,1012.69
2023-01-12T03:29:00.875Z,1012.69
2023-01-12T03:30:01.091Z,1012.69
2023-01-12T03:31:01.096Z,1012.68
2023-01-12T03:32:01.113Z,1012.7
2023-01-12T03:33:01.161Z,1012.62
2023-01-12T03:34:01.111Z,1012.65
2023-01-12T03:35:01.131Z,1012.63
2023-01-12T03:36:01.123Z,1012.59
2023-01-12T03:37:01.150Z,1012.56
2023-01-12T03:38:01.516Z,1012.53
2023-01-12T03:39:01.540Z,1012.62
2023-01-12T03:40:01.267Z,1012.66
2023-01-12T03:41:01.142Z,1012.62
2023-01-12T03:42:01.175Z,1012.64
2023-01-12T03:43:01.194Z,1012.63
2023-01-12T03:44:01.204Z,1012.64
2023-01-12T03:45:01.085Z,1012.64
2023-01-12T03:46:01.084Z,1012.63
2023-01-12T03:47:01.604Z,1012.62
2023-01-12T03:48:01.160Z,1012.54
2023-01-12T03:49:01.095Z,1012.52
2023-01-12T03:50:01.153Z,1012.54
2023-01-12T03:51:01.115Z,1012.48
2023-01-12T03:52:01.115Z,1012.53
2023-01-12T03:53:01.519Z,1012.51
2023-01-12T03:54:01.146Z,1012.53
2023-01-12T03:55:01.188Z,1012.51
2023-01-12T03:56:01.145Z,1012.56
2023-01-12T03:57:01.213Z,1012.52
2023-01-12T03:58:01.070Z,1012.52
2023-01-12T03:59:01.161Z,1012.54
2023-01-12T04:00:01.304Z,1012.52
2023-01-12T04:01:01.546Z,1012.5
2023-01-12T04:02:01.101Z,1012.45
2023-01-12T04:03:01.143Z,1012.52
2023-01-12T04:04:01.759Z,1012.51
2023-01-12T04:05:01.358Z,1012.45
2023-01-12T04:06:02.158Z,1012.49
2023-01-12T04:07:01.896Z,1012.46
2023-01-12T04:08:01.119Z,1012.42
2023-01-12T04:09:01.113Z,1012.47
2023-01-12T04:10:01.537Z,1012.41
2023-01-12T04:11:01.161Z,1012.52
2023-01-12T04:12:01.175Z,1012.47
2023-01-12T04:13:01.158Z,1012.45
2023-01-12T04:14:00.694Z,1012.52
2023-01-12T04:15:00.422Z,1012.51
2023-01-12T04:16:00.243Z,1012.51
2023-01-12T04:16:59.931Z,1012.46
2023-01-12T04:17:59.581Z,1012.46
2023-01-12T04:19:01.284Z,1012.46
2023-01-12T04:20:01.972Z,1012.38
2023-01-12T04:21:01.945Z,1012.36
2023-01-12T04:22:01.098Z,1012.29
2023-01-12T04:23:01.459Z,1012.27
2023-01-12T04:24:01.110Z,1012.27
2023-01-12T04:25:01.135Z,1012.29
2023-01-12T04:26:01.225Z,1012.21
2023-01-12T04:27:01.132Z,1012.24
2023-01-12T04:28:01.209Z,1012.24
2023-01-12T04:29:01.132Z,1012.26
2023-01-12T04:30:01.583Z,1012.18
2023-01-12T04:31:01.167Z,1012.22
2023-01-12T04:32:01.344Z,1012.24
2023-01-12T04:33:04.150Z,1012.19
2023-01-12T04:34:02.006Z,1012.2
2023-01-12T04:35:01.125Z,1012.2
2023-01-12T04:36:01.076Z,1012.18
2023-01-12T04:37:01.085Z,1012.23
2023-01-12T04:38:06.763Z,1012.19
2023-01-12T04:39:01.064Z,1012.21
2023-01-12T04:40:01.062Z,1012.25
2023-01-12T04:41:01.107Z,1012.2
2023-01-12T04:42:01.122Z,1012.16
2023-01-12T04:43:11.323Z,1012.21
2023-01-12T04:44:01.513Z,1012.25
2023-01-12T04:45:02.785Z,1012.3
2023-01-12T04:46:01.219Z,1012.23
2023-01-12T04:47:01.167Z,1012.26
2023-01-12T04:48:13.359Z,1012.26
2023-01-12T04:49:01.825Z,1012.23
2023-01-12T04:50:01.162Z,1012.19
2023-01-12T04:51:01.870Z,1012.22
2023-01-12T04:52:01.841Z,1012.19
2023-01-12T04:53:16.793Z,1012.2
2023-01-12T04:54:01.181Z,1012.15
2023-01-12T04:55:01.100Z,1012.13
2023-01-12T04:56:01.124Z,1012.12
2023-01-12T04:57:01.124Z,1012.12
2023-01-12T04:58:01.153Z,1012.09
2023-01-12T04:59:01.071Z,1012.05
2023-01-12T05:00:01.307Z,1012.1
2023-01-12T05:01:01.596Z,1012.13
2023-01-12T05:02:01.272Z,1012.12
2023-01-12T05:03:01.956Z,1012.11
2023-01-12T05:04:01.241Z,1012.15
2023-01-12T05:05:01.468Z,1012.16
2023-01-12T05:06:02.062Z,1012.16
2023-01-12T05:07:01.178Z,1012.13
2023-01-12T05:08:01.052Z,1012.15
2023-01-12T05:09:01.084Z,1012.06
2023-01-12T05:10:01.310Z,1012.1
2023-01-12T05:11:01.125Z,1012.02
2023-01-12T05:12:01.126Z,1012.01
2023-01-12T05:13:01.239Z,1012.05
2023-01-12T05:14:01.127Z,1012.04
2023-01-12T05:15:01.320Z,1012.01
2023-01-12T05:16:01.519Z,1012.01
2023-01-12T05:17:02.123Z,1012.04
2023-01-12T05:18:02.058Z,1011.96
2023-01-12T05:19:01.083Z,1012.06
2023-01-12T05:20:01.344Z,1012.01
2023-01-12T05:21:01.060Z,1012.06
2023-01-12T05:22:01.066Z,1012.01
2023-01-12T05:23:01.070Z,1012.04
2023-01-12T05:24:00.697Z,1012.04
2023-01-12T05:25:00.366Z,1011.99
2023-01-12T05:25:59.960Z,1012.03
2023-01-12T05:26:59.656Z,1011.98
2023-01-12T05:28:02.348Z,1012.04
2023-01-12T05:29:01.641Z,1012.05
2023-01-12T05:30:01.319Z,1011.99
2023-01-12T05:31:02.651Z,1012.01
2023-01-12T05:32:01.339Z,1012.01
2023-01-12T05:33:02.560Z,1012
2023-01-12T05:34:01.217Z,1011.99
2023-01-12T05:35:01.338Z,1012.02
2023-01-12T05:36:01.341Z,1011.95
2023-01-12T05:37:01.572Z,1011.93
2023-01-12T05:38:01.146Z,1011.9
2023-01-12T05:39:01.097Z,1011.85
2023-01-12T05:40:01.242Z,1011.86
2023-01-12T05:41:01.967Z,1011.85
2023-01-12T05:42:02.015Z,1011.84
2023-01-12T05:43:00.763Z,1011.81
2023-01-12T05:44:01.999Z,1011.83
2023-01-12T05:45:02.143Z,1011.85
2023-01-12T05:46:01.431Z,1011.85
2023-01-12T05:47:01.130Z,1011.86
2023-01-12T05:48:01.154Z,1011.85
2023-01-12T05:49:01.051Z,1011.85
2023-01-12T05:50:01.180Z,1011.88
2023-01-12T05:51:01.163Z,1011.86
2023-01-12T05:52:01.332Z,1011.86
2023-01-12T05:53:00.854Z,1011.91
2023-01-12T05:54:01.095Z,1011.89
2023-01-12T05:55:01.068Z,1011.86
2023-01-12T05:56:01.166Z,1011.92
2023-01-12T05:57:01.779Z,1011.89
2023-01-12T05:58:01.085Z,1011.88
2023-01-12T05:59:01.105Z,1011.84
2023-01-12T06:00:00.774Z,1011.76
2023-01-12T06:01:00.440Z,1011.82
2023-01-12T06:02:00.315Z,1011.75
2023-01-12T06:03:00.049Z,1011.75
2023-01-12T06:03:59.678Z,1011.74
2023-01-12T06:05:01.622Z,1011.76
2023-01-12T06:06:01.289Z,1011.8
2023-01-12T06:07:02.405Z,1011.77
2023-01-12T06:08:01.202Z,1011.71
2023-01-12T06:09:01.287Z,1011.71
2023-01-12T06:10:01.177Z,1011.72
2023-01-12T06:11:01.420Z,1011.69
2023-01-12T06:12:01.486Z,1011.69
2023-01-12T06:13:01.271Z,1011.67
2023-01-12T06:14:01.205Z,1011.7
2023-01-12T06:15:00.902Z,1011.69
2023-01-12T06:16:01.307Z,1011.73
2023-01-12T06:17:01.112Z,1011.72
2023-01-12T06:18:01.114Z,1011.75
2023-01-12T06:19:00.834Z,1011.71
2023-01-12T06:20:00.501Z,1011.75
2023-01-12T06:21:00.213Z,1011.71
2023-01-12T06:21:59.924Z,1011.64
2023-01-12T06:22:59.509Z,1011.74
2023-01-12T06:24:03.543Z,1011.7
2023-01-12T06:25:01.247Z,1011.67
2023-01-12T06:26:01.086Z,1011.68
2023-01-12T06:27:01.162Z,1011.65
2023-01-12T06:28:01.085Z,1011.65
2023-01-12T06:29:06.484Z,1011.62
2023-01-12T06:30:01.115Z,1011.62
2023-01-12T06:31:01.156Z,1011.61
2023-01-12T06:32:01.092Z,1011.61
2023-01-12T06:33:01.155Z,1011.61
2023-01-12T06:34:09.323Z,1011.62
2023-01-12T06:35:07.059Z,1011.51
2023-01-12T06:36:02.032Z,1011.6
2023-01-12T06:37:01.282Z,1011.6
2023-01-12T06:38:01.284Z,1011.6
2023-01-12T06:39:11.868Z,1011.62
2023-01-12T06:40:02.219Z,1011.68
2023-01-12T06:41:01.153Z,1011.7
2023-01-12T06:42:01.178Z,1011.68
2023-01-12T06:43:01.801Z,1011.71
2023-01-12T06:44:14.208Z,1011.72
2023-01-12T06:45:01.492Z,1011.72
2023-01-12T06:46:02.531Z,1011.76
2023-01-12T06:47:01.092Z,1011.73
2023-01-12T06:48:01.324Z,1011.71
2023-01-12T06:49:16.344Z,1011.75
2023-01-12T06:50:02.114Z,1011.72
2023-01-12T06:51:02.203Z,1011.73
2023-01-12T06:52:02.250Z,1011.75
2023-01-12T06:53:01.128Z,1011.71
2023-01-12T06:54:01.140Z,1011.76
2023-01-12T06:55:01.191Z,1011.77
2023-01-12T06:56:06.296Z,1011.79
2023-01-12T06:57:01.540Z,1011.86
2023-01-12T06:58:01.173Z,1011.85
2023-01-12T06:59:01.293Z,1011.82
2023-01-12T07:00:01.071Z,1011.82
2023-01-12T07:01:01.186Z,1011.77
2023-01-12T07:02:02.520Z,1011.78
2023-01-12T07:03:01.091Z,1011.76
2023-01-12T07:04:01.169Z,1011.71
2023-01-12T07:05:01.490Z,1011.77
2023-01-12T07:06:01.247Z,1011.76
2023-01-12T07:07:01.122Z,1011.79
2023-01-12T07:08:01.139Z,1011.75
2023-01-12T07:09:01.182Z,1011.79
2023-01-12T07:10:01.675Z,1011.77
2023-01-12T07:11:01.169Z,1011.75
2023-01-12T07:12:01.151Z,1011.76
2023-01-12T07:13:01.166Z,1011.76
2023-01-12T07:14:01.213Z,1011.75
2023-01-12T07:15:01.065Z,1011.79
2023-01-12T07:16:01.178Z,1011.72
2023-01-12T07:17:01.121Z,1011.7
2023-01-12T07:18:01.114Z,1011.73
2023-01-12T07:19:01.367Z,1011.73
2023-01-12T07:20:01.118Z,1011.71
2023-01-12T07:21:01.116Z,1011.74
2023-01-12T07:22:01.112Z,1011.69
2023-01-12T07:23:01.907Z,1011.7
2023-01-12T07:24:01.650Z,1011.66
2023-01-12T07:25:01.093Z,1011.72
2023-01-12T07:26:01.149Z,1011.72
2023-01-12T07:27:01.133Z,1011.72
2023-01-12T07:28:01.306Z,1011.69
2023-01-12T07:29:01.157Z,1011.7
2023-01-12T07:30:01.114Z,1011.7
2023-01-12T07:31:01.550Z,1011.73
2023-01-12T07:32:01.203Z,1011.77
2023-01-12T07:33:02.120Z,1011.69
2023-01-12T07:34:01.134Z,1011.7
2023-01-12T07:35:01.088Z,1011.7
2023-01-12T07:36:01.088Z,1011.71
2023-01-12T07:37:01.110Z,1011.71
2023-01-12T07:38:01.117Z,1011.65
2023-01-12T07:39:00.840Z,1011.62
2023-01-12T07:40:00.587Z,1011.6
2023-01-12T07:41:00.460Z,1011.58
2023-01-12T07:42:00.132Z,1011.58
2023-01-12T07:42:59.797Z,1011.57
2023-01-12T07:44:01.973Z,1011.53
2023-01-12T07:45:01.923Z,1011.57
2023-01-12T07:46:01.275Z,1011.59
2023-01-12T07:47:00.796Z,1011.61
2023-01-12T07:48:03.756Z,1011.56
2023-01-12T07:49:01.589Z,1011.59
2023-01-12T07:50:01.696Z,1011.58
2023-01-12T07:51:01.274Z,1011.57
2023-01-12T07:52:03.110Z,1011.6
2023-01-12T07:53:01.542Z,1011.58
2023-01-12T07:54:01.225Z,1011.62
2023-01-12T07:55:01.126Z,1011.59
2023-01-12T07:56:01.793Z,1011.63
2023-01-12T07:57:01.428Z,1011.61
2023-01-12T07:58:02.074Z,1011.57
2023-01-12T07:59:01.232Z,1011.59
2023-01-12T08:00:01.322Z,1011.59
2023-01-12T08:01:01.600Z,1011.62
2023-01-12T08:01:59.735Z,1011.53
2023-01-12T08:03:02.245Z,1011.51
2023-01-12T08:04:01.613Z,1011.51
2023-01-12T08:05:01.072Z,1011.54
2023-01-12T08:06:01.094Z,1011.51
2023-01-12T08:07:01.233Z,1011.58
2023-01-12T08:08:03.352Z,1011.51
2023-01-12T08:09:01.136Z,1011.47
2023-01-12T08:10:01.557Z,1011.53
2023-01-12T08:11:01.171Z,1011.52
2023-01-12T08:12:01.129Z,1011.54
2023-01-12T08:13:01.070Z,1011.57
2023-01-12T08:14:01.127Z,1011.57
2023-01-12T08:15:04.205Z,1011.55
2023-01-12T08:16:01.145Z,1011.55
2023-01-12T08:17:01.142Z,1011.58
2023-01-12T08:18:01.157Z,1011.53
2023-01-12T08:19:01.296Z,1011.55
2023-01-12T08:20:05.872Z,1011.56
2023-01-12T08:21:02.274Z,1011.52
2023-01-12T08:22:01.873Z,1011.47
2023-01-12T08:23:02.892Z,1011.52
2023-01-12T08:24:01.752Z,1011.52
2023-01-12T08:25:09.064Z,1011.52
2023-01-12T08:26:01.779Z,1011.48
2023-01-12T08:27:01.121Z,1011.45
2023-01-12T08:28:01.331Z,1011.42
2023-01-12T08:29:01.122Z,1011.4
2023-01-12T08:30:11.563Z,1011.31
2023-01-12T08:31:01.436Z,1011.28
2023-01-12T08:32:01.118Z,1011.27
2023-01-12T08:33:01.163Z,1011.27
2023-01-12T08:34:01.587Z,1011.33
2023-01-12T08:35:14.790Z,1011.21
2023-01-12T08:36:01.748Z,1011.28
2023-01-12T08:37:02.035Z,1011.29
2023-01-12T08:38:01.291Z,1011.31
2023-01-12T08:39:00.903Z,1011.28
2023-01-12T08:40:16.763Z,1011.23
2023-01-12T08:41:01.106Z,1011.14
2023-01-12T08:42:01.128Z,1011.17
2023-01-12T08:43:01.108Z,1011.24
2023-01-12T08:44:01.136Z,1011.36
2023-01-12T08:45:01.121Z,1011.34
2023-01-12T08:46:01.265Z,1011.36
2023-01-12T08:47:01.433Z,1011.38
2023-01-12T08:48:01.470Z,1011.31
2023-01-12T08:49:01.510Z,1011.38
2023-01-12T08:50:01.482Z,1011.34
2023-01-12T08:51:02.976Z,1011.37
2023-01-12T08:52:01.375Z,1011.34
2023-01-12T08:53:01.070Z,1011.31
2023-01-12T08:54:01.076Z,1011.25
2023-01-12T08:55:01.104Z,1011.26
2023-01-12T08:56:01.551Z,1011.23
2023-01-12T08:57:01.094Z,1011.24
2023-01-12T08:58:01.108Z,1011.26
2023-01-12T08:59:00.908Z,1011.28
2023-01-12T09:00:01.140Z,1011.31
2023-01-12T09:01:01.263Z,1011.26
2023-01-12T09:02:00.031Z,1011.29
2023-01-12T09:02:59.784Z,1011.27
2023-01-12T09:04:03.148Z,1011.23
2023-01-12T09:05:01.463Z,1011.27
2023-01-12T09:06:02.119Z,1011.23
2023-01-12T09:07:01.236Z,1011.21
2023-01-12T09:08:01.160Z,1011.2
2023-01-12T09:09:01.921Z,1011.18
2023-01-12T09:10:01.242Z,1011.12
2023-01-12T09:11:01.070Z,1011.2
2023-01-12T09:12:01.186Z,1011.2
2023-01-12T09:13:01.085Z,1011.14
2023-01-12T09:14:01.141Z,1011.12
2023-01-12T09:15:01.108Z,1011.05
2023-01-12T09:16:12.183Z,1011.06
2023-01-12T09:17:01.921Z,1011.05
2023-01-12T09:18:01.133Z,1011.01
2023-01-12T09:19:01.267Z,1011.03
2023-01-12T09:20:01.139Z,1011.01
2023-01-12T09:21:01.141Z,1011.02
2023-01-12T09:22:01.320Z,1011
2023-01-12T09:23:01.338Z,1010.98
2023-01-12T09:24:01.574Z,1010.95
2023-01-12T09:25:02.754Z,1010.92
2023-01-12T09:26:01.080Z,1010.94
2023-01-12T09:27:01.099Z,1010.91
2023-01-12T09:28:01.078Z,1010.92
2023-01-12T09:29:01.093Z,1010.94
2023-01-12T09:30:01.127Z,1010.82
2023-01-12T09:31:01.106Z,1010.83
2023-01-12T09:31:59.616Z,1010.82
2023-01-12T09:33:01.307Z,1010.76
2023-01-12T09:34:01.051Z,1010.78
2023-01-12T09:35:01.084Z,1010.8
2023-01-12T09:36:01.176Z,1010.78
2023-01-12T09:37:01.149Z,1010.82
2023-01-12T09:38:01.179Z,1010.81
2023-01-12T09:39:00.856Z,1010.76
2023-01-12T09:40:00.737Z,1010.77
2023-01-12T09:41:02.295Z,1010.76
2023-01-12T09:42:02.139Z,1010.71
2023-01-12T09:43:01.686Z,1010.76
2023-01-12T09:44:01.082Z,1010.73
2023-01-12T09:45:01.081Z,1010.66
2023-01-12T09:46:01.177Z,1010.63
2023-01-12T09:47:01.071Z,1010.63
2023-01-12T09:48:01.105Z,1010.68
2023-01-12T09:49:01.328Z,1010.69
2023-01-12T09:50:09.241Z,1010.72
2023-01-12T09:51:02.178Z,1010.73
2023-01-12T09:52:01.129Z,1010.68
2023-01-12T09:53:01.571Z,1010.63
2023-01-12T09:54:00.729Z,1010.66
2023-01-12T09:55:00.517Z,1010.63
2023-01-12T09:56:00.247Z,1010.59
2023-01-12T09:56:59.920Z,1010.58
2023-01-12T09:57:59.702Z,1010.49
2023-01-12T09:59:01.368Z,1010.55
2023-01-12T10:00:01.151Z,1010.51
2023-01-12T10:01:00.986Z,1010.52
2023-01-12T10:02:00.489Z,1010.53
2023-01-12T10:03:00.337Z,1010.39
2023-01-12T10:04:00.107Z,1010.42
2023-01-12T10:04:59.952Z,1010.37
2023-01-12T10:06:05.472Z,1010.44
2023-01-12T10:07:01.517Z,1010.31
2023-01-12T10:08:02.156Z,1010.28
2023-01-12T10:09:01.111Z,1010.3
2023-01-12T10:10:01.167Z,1010.37
2023-01-12T10:11:09.228Z,1010.31
2023-01-12T10:12:01.167Z,1010.33
2023-01-12T10:13:01.178Z,1010.22
2023-01-12T10:14:01.074Z,1010.26
2023-01-12T10:15:01.080Z,1010.34
2023-01-12T10:16:11.303Z,1010.38
2023-01-12T10:17:04.576Z,1010.37
2023-01-12T10:18:02.077Z,1010.31
2023-01-12T10:19:01.212Z,1010.28
2023-01-12T10:20:01.144Z,1010.28
2023-01-12T10:21:13.695Z,1010.33
2023-01-12T10:22:01.443Z,1010.33
2023-01-12T10:23:02.185Z,1010.33
2023-01-12T10:24:01.135Z,1010.3
2023-01-12T10:25:01.244Z,1010.35
2023-01-12T10:26:17.008Z,1010.28
2023-01-12T10:27:01.201Z,1010.29
2023-01-12T10:28:01.167Z,1010.32
2023-01-12T10:29:01.170Z,1010.29
2023-01-12T10:30:01.079Z,1010.42
2023-01-12T10:31:01.087Z,1010.33
2023-01-12T10:32:00.060Z,1010.28
2023-01-12T10:32:59.756Z,1010.26
2023-01-12T10:34:01.471Z,1010.29
2023-01-12T10:35:01.115Z,1010.17
2023-01-12T10:36:01.105Z,1010.28
2023-01-12T10:37:01.112Z,1010.25
2023-01-12T10:38:01.133Z,1010.14
2023-01-12T10:39:00.872Z,1010.12
2023-01-12T10:40:01.173Z,1010.16
2023-01-12T10:41:01.143Z,1010.2
2023-01-12T10:42:02.049Z,1010.05
2023-01-12T10:43:04.239Z,1010.03
2023-01-12T10:44:01.180Z,1010.03
2023-01-12T10:45:01.171Z,1010.11
2023-01-12T10:46:02.058Z,1010.05
2023-01-12T10:47:01.068Z,1010.04
2023-01-12T10:48:01.093Z,1010
2023-01-12T10:49:01.074Z,1010.05
2023-01-12T10:50:01.109Z,1010
2023-01-12T10:51:01.440Z,1009.99
2023-01-12T10:52:03.961Z,1009.93
2023-01-12T10:53:01.195Z,1009.94
2023-01-12T10:54:03.989Z,1009.91
2023-01-12T10:55:01.135Z,1009.83
2023-01-12T10:56:01.173Z,1009.79
2023-01-12T10:57:01.077Z,1009.92
2023-01-12T10:58:01.675Z,1009.79
2023-01-12T10:59:00.844Z,1009.82
2023-01-12T11:00:00.575Z,1009.78
2023-01-12T11:01:00.676Z,1009.71
2023-01-12T11:01:59.958Z,1009.7
2023-01-12T11:02:59.781Z,1009.74
2023-01-12T11:04:04.610Z,1009.63
2023-01-12T11:05:01.911Z,1009.6
2023-01-12T11:06:01.099Z,1009.64
2023-01-12T11:07:02.281Z,1009.59
2023-01-12T11:08:01.120Z,1009.59
2023-01-12T11:09:01.175Z,1009.55
2023-01-12T11:10:01.578Z,1009.54
2023-01-12T11:11:02.197Z,1009.62
2023-01-12T11:12:01.136Z,1009.48
2023-01-12T11:13:02.584Z,1009.56
2023-01-12T11:14:01.148Z,1009.47
2023-01-12T11:15:01.224Z,1009.44
2023-01-12T11:16:01.198Z,1009.47
2023-01-12T11:17:01.355Z,1009.49
2023-01-12T11:18:01.488Z,1009.49
2023-01-12T11:19:01.463Z,1009.4
2023-01-12T11:20:01.208Z,1009.37
2023-01-12T11:21:00.860Z,1009.34
2023-01-12T11:22:00.482Z,1009.32
2023-01-12T11:23:00.053Z,1009.32
2023-01-12T11:23:59.753Z,1009.33
2023-01-12T11:25:01.862Z,1009.41
2023-01-12T11:26:01.163Z,1009.31
2023-01-12T11:27:02.146Z,1009.34
2023-01-12T11:28:01.142Z,1009.25
2023-01-12T11:29:01.125Z,1009.31
2023-01-12T11:30:01.147Z,1009.34
2023-01-12T11:31:01.251Z,1009.31
2023-01-12T11:32:00.226Z,1009.37
2023-01-12T11:32:59.781Z,1009.34
2023-01-12T11:34:01.469Z,1009.26
2023-01-12T11:35:02.690Z,1009.26
2023-01-12T11:36:02.786Z,1009.3
2023-01-12T11:37:01.053Z,1009.22
2023-01-12T11:38:01.119Z,1009.18
2023-01-12T11:39:00.693Z,1009.28
2023-01-12T11:40:00.391Z,1009.2
2023-01-12T11:41:00.074Z,1009.22
2023-01-12T11:42:01.876Z,1009.15
2023-01-12T11:43:01.138Z,1009.09
2023-01-12T11:44:00.434Z,1009.1
2023-01-12T11:45:00.415Z,1009.13
2023-01-12T11:46:00.157Z,1009.12
2023-01-12T11:47:06.048Z,1009.19
2023-01-12T11:48:01.558Z,1009.09
2023-01-12T11:49:01.169Z,1009.15
2023-01-12T11:50:01.177Z,1009.14
2023-01-12T11:51:03.937Z,1009.09
2023-01-12T11:52:08.839Z,1009.03
2023-01-12T11:53:01.083Z,1009.07
2023-01-12T11:54:01.271Z,1008.94
2023-01-12T11:55:01.159Z,1008.98
2023-01-12T11:56:01.285Z,1009.06
2023-01-12T11:57:11.827Z,1009.13
2023-01-12T11:58:01.170Z,1009.11
2023-01-12T11:59:00.561Z,1009.04
2023-01-12T12:00:00.207Z,1009.01
2023-01-12T12:01:00.005Z,1009.07
2023-01-12T12:02:13.486Z,1009.06
2023-01-12T12:03:01.151Z,1009.04
2023-01-12T12:04:01.163Z,1009.09
2023-01-12T12:05:00.942Z,1008.96
2023-01-12T12:06:00.754Z,1009.07
2023-01-12T12:07:16.036Z,1008.96